sensor_id;sensor_type;location;lat;lon;timestamp;pressure;altitude;pressure_sealevel;temperature;humidity
85511;BME280;75921;51.616;11.880;2024-02-23T00:01:04;96958.50;;;9.72;74.55
85511;BME280;75921;51.616;11.880;2024-02-23T00:03:30;96954.00;;;9.83;74.71
85511;BME280;75921;51.616;11.880;2024-02-23T00:05:55;96954.22;;;9.76;73.51
85511;BME280;75921;51.616;11.880;2024-02-23T00:08:21;96971.47;;;9.75;73.46
85511;BME280;75921;51.616;11.880;2024-02-23T00:10:46;96985.94;;;9.69;73.89
85511;BME280;75921;51.616;11.880;2024-02-23T00:13:11;96978.50;;;9.76;72.51
85511;BME280;75921;51.616;11.880;2024-02-23T00:15:37;97006.56;;;9.80;72.24
85511;BME280;75921;51.616;11.880;2024-02-23T00:18:02;97004.38;;;9.77;72.26
85511;BME280;75921;51.616;11.880;2024-02-23T00:20:29;97011.94;;;9.80;71.72
85511;BME280;75921;51.616;11.880;2024-02-23T00:22:54;97032.41;;;9.76;71.81
85511;BME280;75921;51.616;11.880;2024-02-23T00:25:19;97038.78;;;9.70;72.21
85511;BME280;75921;51.616;11.880;2024-02-23T00:27:45;97054.88;;;9.65;71.28
85511;BME280;75921;51.616;11.880;2024-02-23T00:30:12;97066.16;;;9.62;69.09
85511;BME280;75921;51.616;11.880;2024-02-23T00:32:37;97087.56;;;9.52;67.54
85511;BME280;75921;51.616;11.880;2024-02-23T00:35:02;97102.84;;;9.46;65.87
85511;BME280;75921;51.616;11.880;2024-02-23T00:37:28;97118.78;;;9.31;67.53
85511;BME280;75921;51.616;11.880;2024-02-23T00:39:53;97109.88;;;9.31;69.18
85511;BME280;75921;51.616;11.880;2024-02-23T00:42:18;97108.75;;;9.27;67.14
85511;BME280;75921;51.616;11.880;2024-02-23T00:44:46;97123.31;;;9.14;68.46
85511;BME280;75921;51.616;11.880;2024-02-23T00:47:11;97136.88;;;9.02;69.03
85511;BME280;75921;51.616;11.880;2024-02-23T00:49:36;97127.91;;;8.97;70.22
85511;BME280;75921;51.616;11.880;2024-02-23T00:52:01;97150.06;;;8.87;71.82
85511;BME280;75921;51.616;11.880;2024-02-23T00:54:27;97138.06;;;8.78;71.01
85511;BME280;75921;51.616;11.880;2024-02-23T00:56:52;97146.59;;;8.75;71.16
85511;BME280;75921;51.616;11.880;2024-02-23T00:59:18;97144.63;;;8.70;69.46
85511;BME280;75921;51.616;11.880;2024-02-23T01:01:43;97161.88;;;8.69;69.20
85511;BME280;75921;51.616;11.880;2024-02-23T01:04:08;97167.47;;;8.68;71.36
85511;BME280;75921;51.616;11.880;2024-02-23T01:06:33;97171.44;;;8.65;70.55
85511;BME280;75921;51.616;11.880;2024-02-23T01:08:59;97158.97;;;8.59;67.25
85511;BME280;75921;51.616;11.880;2024-02-23T01:11:24;97188.81;;;8.58;67.03
85511;BME280;75921;51.616;11.880;2024-02-23T01:13:49;97191.16;;;8.54;67.17
85511;BME280;75921;51.616;11.880;2024-02-23T01:16:15;97187.94;;;8.69;65.85
85511;BME280;75921;51.616;11.880;2024-02-23T01:18:41;97202.84;;;8.60;65.98
85511;BME280;75921;51.616;11.880;2024-02-23T01:21:06;97222.56;;;8.65;64.39
85511;BME280;75921;51.616;11.880;2024-02-23T01:23:32;97238.63;;;8.60;64.25
85511;BME280;75921;51.616;11.880;2024-02-23T01:25:57;97227.53;;;8.57;63.89
85511;BME280;75921;51.616;11.880;2024-02-23T01:28:24;97235.13;;;8.60;64.15
85511;BME280;75921;51.616;11.880;2024-02-23T01:30:49;97225.06;;;8.55;62.91
85511;BME280;75921;51.616;11.880;2024-02-23T01:33:15;97231.53;;;8.43;64.69
85511;BME280;75921;51.616;11.880;2024-02-23T01:35:40;97229.44;;;8.33;65.09
85511;BME280;75921;51.616;11.880;2024-02-23T01:38:06;97245.25;;;8.30;67.11
85511;BME280;75921;51.616;11.880;2024-02-23T01:40:31;97251.63;;;8.28;65.49
85511;BME280;75921;51.616;11.880;2024-02-23T01:43:15;97263.44;;;8.27;66.09
85511;BME280;75921;51.616;11.880;2024-02-23T01:45:40;97273.28;;;8.34;64.51
85511;BME280;75921;51.616;11.880;2024-02-23T01:48:06;97264.84;;;8.18;65.26
85511;BME280;75921;51.616;11.880;2024-02-23T01:50:32;97289.53;;;8.15;65.81
85511;BME280;75921;51.616;11.880;2024-02-23T01:53:00;97298.28;;;8.11;66.17
85511;BME280;75921;51.616;11.880;2024-02-23T01:55:26;97306.69;;;8.03;67.24
85511;BME280;75921;51.616;11.880;2024-02-23T01:57:52;97316.06;;;8.00;68.81
85511;BME280;75921;51.616;11.880;2024-02-23T02:00:20;97328.41;;;7.90;69.41
85511;BME280;75921;51.616;11.880;2024-02-23T02:02:48;97305.50;;;7.87;69.50
85511;BME280;75921;51.616;11.880;2024-02-23T02:05:13;97326.78;;;7.77;71.47
85511;BME280;75921;51.616;11.880;2024-02-23T02:07:40;97337.13;;;7.73;70.54
85511;BME280;75921;51.616;11.880;2024-02-23T02:10:08;97338.31;;;7.66;71.06
85511;BME280;75921;51.616;11.880;2024-02-23T02:12:34;97327.13;;;7.80;70.94
85511;BME280;75921;51.616;11.880;2024-02-23T02:14:59;97354.69;;;7.76;68.62
85511;BME280;75921;51.616;11.880;2024-02-23T02:17:27;97349.53;;;7.74;68.05
85511;BME280;75921;51.616;11.880;2024-02-23T02:19:52;97359.59;;;7.79;65.91
85511;BME280;75921;51.616;11.880;2024-02-23T02:22:17;97365.56;;;7.81;65.99
85511;BME280;75921;51.616;11.880;2024-02-23T02:24:42;97381.13;;;7.91;65.06
85511;BME280;75921;51.616;11.880;2024-02-23T02:27:09;97385.91;;;7.89;64.84
85511;BME280;75921;51.616;11.880;2024-02-23T02:29:37;97376.31;;;7.81;65.03
85511;BME280;75921;51.616;11.880;2024-02-23T02:32:03;97388.44;;;7.83;64.82
85511;BME280;75921;51.616;11.880;2024-02-23T02:34:28;97399.66;;;7.80;65.69
85511;BME280;75921;51.616;11.880;2024-02-23T02:36:54;97395.06;;;7.69;66.92
85511;BME280;75921;51.616;11.880;2024-02-23T02:39:20;97405.59;;;7.71;68.53
85511;BME280;75921;51.616;11.880;2024-02-23T02:41:45;97404.41;;;7.67;69.46
85511;BME280;75921;51.616;11.880;2024-02-23T02:44:10;97423.66;;;7.64;68.00
85511;BME280;75921;51.616;11.880;2024-02-23T02:46:38;97415.94;;;7.56;69.92
85511;BME280;75921;51.616;11.880;2024-02-23T02:49:03;97416.47;;;7.46;69.76
85511;BME280;75921;51.616;11.880;2024-02-23T02:51:28;97419.84;;;7.42;70.14
85511;BME280;75921;51.616;11.880;2024-02-23T02:53:53;97408.94;;;7.36;71.27
85511;BME280;75921;51.616;11.880;2024-02-23T02:56:19;97434.63;;;7.32;72.93
85511;BME280;75921;51.616;11.880;2024-02-23T02:58:44;97425.75;;;7.32;71.83
85511;BME280;75921;51.616;11.880;2024-02-23T03:01:09;97436.56;;;7.25;70.67
85511;BME280;75921;51.616;11.880;2024-02-23T03:03:35;97440.28;;;7.24;70.43
85511;BME280;75921;51.616;11.880;2024-02-23T03:06:00;97439.09;;;7.20;70.49
85511;BME280;75921;51.616;11.880;2024-02-23T03:08:25;97442.09;;;7.12;70.34
85511;BME280;75921;51.616;11.880;2024-02-23T03:10:51;97444.97;;;7.11;69.40
85511;BME280;75921;51.616;11.880;2024-02-23T03:13:16;97443.78;;;7.07;68.97
85511;BME280;75921;51.616;11.880;2024-02-23T03:15:42;97452.50;;;7.02;70.73
85511;BME280;75921;51.616;11.880;2024-02-23T03:18:07;97467.63;;;6.96;70.47
85511;BME280;75921;51.616;11.880;2024-02-23T03:20:34;97461.75;;;6.88;70.87
85511;BME280;75921;51.616;11.880;2024-02-23T03:23:15;97469.81;;;6.88;70.94
85511;BME280;75921;51.616;11.880;2024-02-23T03:25:40;97475.38;;;6.86;69.78
85511;BME280;75921;51.616;11.880;2024-02-23T03:28:06;97480.38;;;6.83;69.78
85511;BME280;75921;51.616;11.880;2024-02-23T03:30:31;97497.97;;;6.79;70.51
85511;BME280;75921;51.616;11.880;2024-02-23T03:32:56;97500.63;;;6.79;69.59
85511;BME280;75921;51.616;11.880;2024-02-23T03:35:22;97496.50;;;6.76;69.72
85511;BME280;75921;51.616;11.880;2024-02-23T03:37:47;97513.13;;;6.67;69.80
85511;BME280;75921;51.616;11.880;2024-02-23T03:40:12;97512.66;;;6.70;69.71
85511;BME280;75921;51.616;11.880;2024-02-23T03:42:38;97530.06;;;6.61;70.88
85511;BME280;75921;51.616;11.880;2024-02-23T03:45:04;97523.53;;;6.50;71.44
85511;BME280;75921;51.616;11.880;2024-02-23T03:47:29;97528.91;;;6.50;72.53
85511;BME280;75921;51.616;11.880;2024-02-23T03:49:55;97532.31;;;6.39;71.48
85511;BME280;75921;51.616;11.880;2024-02-23T03:52:20;97533.97;;;6.40;71.00
85511;BME280;75921;51.616;11.880;2024-02-23T03:54:45;97541.75;;;6.41;70.42
85511;BME280;75921;51.616;11.880;2024-02-23T03:57:11;97553.75;;;6.39;70.60
85511;BME280;75921;51.616;11.880;2024-02-23T03:59:36;97555.63;;;6.38;70.70
85511;BME280;75921;51.616;11.880;2024-02-23T04:02:02;97568.47;;;6.30;70.53
85511;BME280;75921;51.616;11.880;2024-02-23T04:04:28;97570.31;;;6.29;70.31
85511;BME280;75921;51.616;11.880;2024-02-23T04:06:53;97571.97;;;6.30;71.21
85511;BME280;75921;51.616;11.880;2024-02-23T04:09:18;97575.69;;;6.29;69.43
85511;BME280;75921;51.616;11.880;2024-02-23T04:11:47;97579.19;;;6.30;70.18
85511;BME280;75921;51.616;11.880;2024-02-23T04:14:12;97592.97;;;6.33;71.53
85511;BME280;75921;51.616;11.880;2024-02-23T04:16:37;97589.19;;;6.41;72.80
85511;BME280;75921;51.616;11.880;2024-02-23T04:19:02;97598.34;;;6.33;74.42
85511;BME280;75921;51.616;11.880;2024-02-23T04:21:28;97601.19;;;6.38;73.82
85511;BME280;75921;51.616;11.880;2024-02-23T04:23:53;97615.63;;;6.37;74.71
85511;BME280;75921;51.616;11.880;2024-02-23T04:26:18;97615.66;;;6.31;75.32
85511;BME280;75921;51.616;11.880;2024-02-23T04:28:44;97620.81;;;6.32;75.96
85511;BME280;75921;51.616;11.880;2024-02-23T04:31:09;97632.00;;;6.16;76.06
85511;BME280;75921;51.616;11.880;2024-02-23T04:33:35;97628.34;;;6.11;77.42
85511;BME280;75921;51.616;11.880;2024-02-23T04:36:01;97633.28;;;6.07;76.69
85511;BME280;75921;51.616;11.880;2024-02-23T04:38:28;97646.47;;;6.15;76.35
85511;BME280;75921;51.616;11.880;2024-02-23T04:40:53;97651.69;;;5.84;76.53
85511;BME280;75921;51.616;11.880;2024-02-23T04:43:18;97656.22;;;5.77;75.40
85511;BME280;75921;51.616;11.880;2024-02-23T04:45:43;97657.09;;;5.71;76.72
85511;BME280;75921;51.616;11.880;2024-02-23T04:48:09;97669.47;;;5.65;75.96
85511;BME280;75921;51.616;11.880;2024-02-23T04:50:35;97671.31;;;5.64;77.05
85511;BME280;75921;51.616;11.880;2024-02-23T04:53:00;97671.06;;;5.73;74.85
85511;BME280;75921;51.616;11.880;2024-02-23T04:55:25;97676.44;;;5.73;75.34
85511;BME280;75921;51.616;11.880;2024-02-23T04:57:50;97664.09;;;5.58;72.55
85511;BME280;75921;51.616;11.880;2024-02-23T05:00:16;97703.44;;;5.64;72.73
85511;BME280;75921;51.616;11.880;2024-02-23T05:02:42;97694.97;;;5.74;73.75
85511;BME280;75921;51.616;11.880;2024-02-23T05:05:07;97677.69;;;5.70;71.05
85511;BME280;75921;51.616;11.880;2024-02-23T05:07:34;97691.09;;;5.70;71.09
85511;BME280;75921;51.616;11.880;2024-02-23T05:09:59;97694.16;;;5.74;72.13
85511;BME280;75921;51.616;11.880;2024-02-23T05:12:25;97702.41;;;5.65;72.21
85511;BME280;75921;51.616;11.880;2024-02-23T05:14:50;97694.38;;;5.65;73.08
85511;BME280;75921;51.616;11.880;2024-02-23T05:17:27;97692.13;;;5.56;74.84
85511;BME280;75921;51.616;11.880;2024-02-23T05:19:52;97705.94;;;5.59;72.52
85511;BME280;75921;51.616;11.880;2024-02-23T05:22:18;97723.63;;;5.47;72.50
85511;BME280;75921;51.616;11.880;2024-02-23T05:24:44;97712.13;;;5.40;71.88
85511;BME280;75921;51.616;11.880;2024-02-23T05:27:10;97713.56;;;5.36;72.84
85511;BME280;75921;51.616;11.880;2024-02-23T05:29:35;97723.22;;;5.44;72.73
85511;BME280;75921;51.616;11.880;2024-02-23T05:32:01;97726.31;;;5.60;74.63
85511;BME280;75921;51.616;11.880;2024-02-23T05:34:26;97725.91;;;5.31;74.00
85511;BME280;75921;51.616;11.880;2024-02-23T05:36:51;97741.13;;;5.30;76.08
85511;BME280;75921;51.616;11.880;2024-02-23T05:39:16;97745.66;;;5.23;74.85
85511;BME280;75921;51.616;11.880;2024-02-23T05:41:42;97754.31;;;5.12;75.10
85511;BME280;75921;51.616;11.880;2024-02-23T05:44:08;97766.00;;;5.04;75.43
85511;BME280;75921;51.616;11.880;2024-02-23T05:46:34;97771.59;;;5.16;77.33
85511;BME280;75921;51.616;11.880;2024-02-23T05:48:59;97788.91;;;5.33;77.30
85511;BME280;75921;51.616;11.880;2024-02-23T05:51:25;97789.28;;;5.10;75.49
85511;BME280;75921;51.616;11.880;2024-02-23T05:53:50;97796.66;;;4.89;76.30
85511;BME280;75921;51.616;11.880;2024-02-23T05:56:15;97785.97;;;5.02;78.25
85511;BME280;75921;51.616;11.880;2024-02-23T05:58:41;97800.34;;;4.88;76.09
85511;BME280;75921;51.616;11.880;2024-02-23T06:01:06;97790.84;;;4.85;75.74
85511;BME280;75921;51.616;11.880;2024-02-23T06:03:32;97808.63;;;5.06;75.25
85511;BME280;75921;51.616;11.880;2024-02-23T06:05:57;97825.13;;;5.16;78.86
85511;BME280;75921;51.616;11.880;2024-02-23T06:08:23;97832.00;;;4.84;75.54
85511;BME280;75921;51.616;11.880;2024-02-23T06:10:48;97828.38;;;4.98;75.09
85511;BME280;75921;51.616;11.880;2024-02-23T06:13:13;97820.75;;;5.02;76.83
85511;BME280;75921;51.616;11.880;2024-02-23T06:15:38;97838.19;;;4.91;74.64
85511;BME280;75921;51.616;11.880;2024-02-23T06:18:04;97862.66;;;4.82;74.58
85511;BME280;75921;51.616;11.880;2024-02-23T06:20:29;97855.31;;;4.97;76.39
85511;BME280;75921;51.616;11.880;2024-02-23T06:22:55;97855.13;;;4.98;76.92
85511;BME280;75921;51.616;11.880;2024-02-23T06:25:20;97866.34;;;4.80;75.03
85511;BME280;75921;51.616;11.880;2024-02-23T06:27:46;97856.06;;;4.77;75.62
85511;BME280;75921;51.616;11.880;2024-02-23T06:30:11;97865.81;;;4.98;75.95
85511;BME280;75921;51.616;11.880;2024-02-23T06:32:37;97872.41;;;5.02;73.80
85511;BME280;75921;51.616;11.880;2024-02-23T06:35:02;97895.00;;;4.93;73.94
85511;BME280;75921;51.616;11.880;2024-02-23T06:37:28;97894.75;;;4.82;74.25
85511;BME280;75921;51.616;11.880;2024-02-23T06:39:53;97886.47;;;4.76;74.77
85511;BME280;75921;51.616;11.880;2024-02-23T06:42:20;97888.75;;;4.73;74.35
85511;BME280;75921;51.616;11.880;2024-02-23T06:44:45;97902.34;;;4.85;73.78
85511;BME280;75921;51.616;11.880;2024-02-23T06:47:11;97906.28;;;4.82;73.53
85511;BME280;75921;51.616;11.880;2024-02-23T06:49:40;97896.53;;;4.74;73.82
85511;BME280;75921;51.616;11.880;2024-02-23T06:52:06;97906.03;;;4.77;73.70
85511;BME280;75921;51.616;11.880;2024-02-23T06:54:31;97915.94;;;4.83;72.42
85511;BME280;75921;51.616;11.880;2024-02-23T06:56:56;97909.13;;;4.80;73.77
85511;BME280;75921;51.616;11.880;2024-02-23T06:59:22;97913.88;;;4.78;72.59
85511;BME280;75921;51.616;11.880;2024-02-23T07:01:50;97901.56;;;4.91;72.92
85511;BME280;75921;51.616;11.880;2024-02-23T07:04:15;97898.19;;;4.75;72.45
85511;BME280;75921;51.616;11.880;2024-02-23T07:06:41;97900.03;;;4.75;71.56
85511;BME280;75921;51.616;11.880;2024-02-23T07:09:06;97903.53;;;4.69;71.31
85511;BME280;75921;51.616;11.880;2024-02-23T07:11:31;97901.09;;;4.74;71.15
85511;BME280;75921;51.616;11.880;2024-02-23T07:13:56;97903.31;;;4.70;70.91
85511;BME280;75921;51.616;11.880;2024-02-23T07:16:22;97910.97;;;4.80;70.76
85511;BME280;75921;51.616;11.880;2024-02-23T07:18:47;97930.72;;;4.79;70.53
85511;BME280;75921;51.616;11.880;2024-02-23T07:21:12;97953.34;;;4.76;71.35
85511;BME280;75921;51.616;11.880;2024-02-23T07:23:37;97955.81;;;4.78;71.88
85511;BME280;75921;51.616;11.880;2024-02-23T07:26:03;97943.88;;;4.74;71.28
85511;BME280;75921;51.616;11.880;2024-02-23T07:28:28;97950.84;;;4.75;71.84
85511;BME280;75921;51.616;11.880;2024-02-23T07:30:53;97955.59;;;4.73;72.70
85511;BME280;75921;51.616;11.880;2024-02-23T07:33:19;97973.47;;;4.72;72.45
85511;BME280;75921;51.616;11.880;2024-02-23T07:35:44;97972.06;;;4.76;72.70
85511;BME280;75921;51.616;11.880;2024-02-23T07:38:09;97990.78;;;4.76;73.50
85511;BME280;75921;51.616;11.880;2024-02-23T07:40:35;97976.16;;;4.72;73.18
85511;BME280;75921;51.616;11.880;2024-02-23T07:43:00;97975.50;;;4.70;73.74
85511;BME280;75921;51.616;11.880;2024-02-23T07:45:26;97980.66;;;4.72;73.16
85511;BME280;75921;51.616;11.880;2024-02-23T07:47:51;97981.88;;;4.69;73.53
85511;BME280;75921;51.616;11.880;2024-02-23T07:50:17;97994.63;;;4.67;74.42
85511;BME280;75921;51.616;11.880;2024-02-23T07:52:43;98004.75;;;4.72;74.81
85511;BME280;75921;51.616;11.880;2024-02-23T07:55:09;98004.78;;;4.78;75.01
85511;BME280;75921;51.616;11.880;2024-02-23T07:57:34;97999.94;;;4.89;75.13
85511;BME280;75921;51.616;11.880;2024-02-23T08:00:00;97985.00;;;4.73;74.76
85511;BME280;75921;51.616;11.880;2024-02-23T08:02:25;97981.75;;;4.77;75.37
85511;BME280;75921;51.616;11.880;2024-02-23T08:04:50;97991.25;;;4.87;74.48
85511;BME280;75921;51.616;11.880;2024-02-23T08:07:17;97989.38;;;4.80;74.80
85511;BME280;75921;51.616;11.880;2024-02-23T08:09:42;98001.84;;;5.01;74.27
85511;BME280;75921;51.616;11.880;2024-02-23T08:12:08;98008.38;;;4.92;74.18
85511;BME280;75921;51.616;11.880;2024-02-23T08:14:33;97996.06;;;4.98;73.22
85511;BME280;75921;51.616;11.880;2024-02-23T08:16:58;97982.47;;;4.93;74.05
85511;BME280;75921;51.616;11.880;2024-02-23T08:19:24;97998.50;;;4.93;73.05
85511;BME280;75921;51.616;11.880;2024-02-23T08:21:49;97992.13;;;4.94;72.78
85511;BME280;75921;51.616;11.880;2024-02-23T08:24:15;97994.38;;;4.90;72.47
85511;BME280;75921;51.616;11.880;2024-02-23T08:26:40;97985.75;;;4.95;72.83
85511;BME280;75921;51.616;11.880;2024-02-23T08:29:06;97995.44;;;4.96;73.50
85511;BME280;75921;51.616;11.880;2024-02-23T08:31:31;97995.84;;;4.93;73.45
85511;BME280;75921;51.616;11.880;2024-02-23T08:33:57;97992.13;;;4.94;72.58
85511;BME280;75921;51.616;11.880;2024-02-23T08:36:22;97976.06;;;4.94;73.92
85511;BME280;75921;51.616;11.880;2024-02-23T08:38:47;97990.25;;;4.94;71.70
85511;BME280;75921;51.616;11.880;2024-02-23T08:41:13;97977.28;;;4.91;72.92
85511;BME280;75921;51.616;11.880;2024-02-23T08:43:38;97991.09;;;4.95;71.75
85511;BME280;75921;51.616;11.880;2024-02-23T08:46:04;98006.13;;;4.96;72.79
85511;BME280;75921;51.616;11.880;2024-02-23T08:48:29;97999.56;;;4.98;71.82
85511;BME280;75921;51.616;11.880;2024-02-23T08:50:55;97999.56;;;4.98;71.94
85511;BME280;75921;51.616;11.880;2024-02-23T08:53:20;98005.34;;;5.02;71.64
85511;BME280;75921;51.616;11.880;2024-02-23T08:55:45;98002.50;;;5.03;71.94
85511;BME280;75921;51.616;11.880;2024-02-23T08:58:10;98007.84;;;5.03;72.30
85511;BME280;75921;51.616;11.880;2024-02-23T09:00:36;98008.88;;;5.09;70.49
85511;BME280;75921;51.616;11.880;2024-02-23T09:03:02;98015.28;;;5.14;70.02
85511;BME280;75921;51.616;11.880;2024-02-23T09:05:27;98013.69;;;5.20;70.06
85511;BME280;75921;51.616;11.880;2024-02-23T09:07:53;98021.53;;;5.28;69.61
85511;BME280;75921;51.616;11.880;2024-02-23T09:10:18;98021.59;;;5.35;71.01
85511;BME280;75921;51.616;11.880;2024-02-23T09:12:43;98033.94;;;5.36;69.23
85511;BME280;75921;51.616;11.880;2024-02-23T09:15:09;98024.06;;;5.36;70.41
85511;BME280;75921;51.616;11.880;2024-02-23T09:17:34;98020.59;;;5.42;69.58
85511;BME280;75921;51.616;11.880;2024-02-23T09:19:59;98029.66;;;5.41;70.34
85511;BME280;75921;51.616;11.880;2024-02-23T09:22:25;98012.56;;;5.42;69.14
85511;BME280;75921;51.616;11.880;2024-02-23T09:24:50;98001.03;;;5.48;69.26
85511;BME280;75921;51.616;11.880;2024-02-23T09:27:15;98002.72;;;5.49;69.70
85511;BME280;75921;51.616;11.880;2024-02-23T09:29:41;98001.09;;;5.55;68.37
85511;BME280;75921;51.616;11.880;2024-02-23T09:32:07;98015.91;;;5.57;70.39
85511;BME280;75921;51.616;11.880;2024-02-23T09:34:32;98028.91;;;5.60;68.99
85511;BME280;75921;51.616;11.880;2024-02-23T09:36:57;98004.81;;;5.60;72.07
85511;BME280;75921;51.616;11.880;2024-02-23T09:39:23;98015.13;;;5.63;68.48
85511;BME280;75921;51.616;11.880;2024-02-23T09:41:51;98014.69;;;5.60;68.66
85511;BME280;75921;51.616;11.880;2024-02-23T09:44:18;98018.00;;;5.62;67.06
85511;BME280;75921;51.616;11.880;2024-02-23T09:46:45;98032.44;;;5.67;69.79
85511;BME280;75921;51.616;11.880;2024-02-23T09:49:11;98032.25;;;5.69;68.70
85511;BME280;75921;51.616;11.880;2024-02-23T09:51:38;98038.00;;;5.66;68.28
85511;BME280;75921;51.616;11.880;2024-02-23T09:54:04;98038.63;;;5.68;68.10
85511;BME280;75921;51.616;11.880;2024-02-23T09:56:30;98043.78;;;5.70;68.64
85511;BME280;75921;51.616;11.880;2024-02-23T09:58:56;98048.94;;;5.71;70.88
85511;BME280;75921;51.616;11.880;2024-02-23T10:01:28;98061.75;;;5.76;69.10
85511;BME280;75921;51.616;11.880;2024-02-23T10:03:55;98066.06;;;5.77;70.29
85511;BME280;75921;51.616;11.880;2024-02-23T10:06:21;98070.81;;;5.75;68.42
85511;BME280;75921;51.616;11.880;2024-02-23T10:08:46;98056.72;;;5.59;71.48
85511;BME280;75921;51.616;11.880;2024-02-23T10:11:11;98091.63;;;5.79;66.46
85511;BME280;75921;51.616;11.880;2024-02-23T10:13:37;98095.56;;;5.83;67.16
85511;BME280;75921;51.616;11.880;2024-02-23T10:16:02;98091.63;;;5.79;69.96
85511;BME280;75921;51.616;11.880;2024-02-23T10:18:29;98087.53;;;5.83;66.82
85511;BME280;75921;51.616;11.880;2024-02-23T10:20:54;98092.31;;;5.88;70.07
85511;BME280;75921;51.616;11.880;2024-02-23T10:23:21;98094.59;;;5.91;65.86
85511;BME280;75921;51.616;11.880;2024-02-23T10:25:46;98083.25;;;5.89;67.64
85511;BME280;75921;51.616;11.880;2024-02-23T10:28:12;98079.56;;;5.96;66.93
85511;BME280;75921;51.616;11.880;2024-02-23T10:30:37;98077.47;;;5.92;68.94
85511;BME280;75921;51.616;11.880;2024-02-23T10:33:05;98082.69;;;6.00;65.60
85511;BME280;75921;51.616;11.880;2024-02-23T10:35:31;98083.66;;;5.92;70.61
85511;BME280;75921;51.616;11.880;2024-02-23T10:37:57;98083.69;;;5.99;66.90
85511;BME280;75921;51.616;11.880;2024-02-23T10:40:24;98092.38;;;6.01;66.96
85511;BME280;75921;51.616;11.880;2024-02-23T10:42:56;98084.34;;;6.01;68.67
85511;BME280;75921;51.616;11.880;2024-02-23T10:45:22;98080.84;;;6.00;69.53
85511;BME280;75921;51.616;11.880;2024-02-23T10:47:47;98081.63;;;5.94;66.80
85511;BME280;75921;51.616;11.880;2024-02-23T10:50:14;98095.25;;;5.99;66.15
85511;BME280;75921;51.616;11.880;2024-02-23T10:52:40;98085.38;;;6.06;65.51
85511;BME280;75921;51.616;11.880;2024-02-23T10:55:08;98085.81;;;6.10;65.53
85511;BME280;75921;51.616;11.880;2024-02-23T10:57:34;98081.28;;;6.11;65.92
85511;BME280;75921;51.616;11.880;2024-02-23T11:00:00;98083.97;;;6.17;66.29
85511;BME280;75921;51.616;11.880;2024-02-23T11:02:27;98084.59;;;6.19;65.71
85511;BME280;75921;51.616;11.880;2024-02-23T11:04:55;98070.59;;;6.24;66.01
85511;BME280;75921;51.616;11.880;2024-02-23T11:07:22;98069.97;;;6.28;66.03
85511;BME280;75921;51.616;11.880;2024-02-23T11:09:54;98065.63;;;6.27;67.97
85511;BME280;75921;51.616;11.880;2024-02-23T11:12:24;98060.28;;;6.27;64.65
85511;BME280;75921;51.616;11.880;2024-02-23T11:14:50;98080.44;;;6.17;66.09
85511;BME280;75921;51.616;11.880;2024-02-23T11:17:19;98087.09;;;6.27;66.74
85511;BME280;75921;51.616;11.880;2024-02-23T11:19:46;98080.09;;;6.33;68.82
85511;BME280;75921;51.616;11.880;2024-02-23T11:22:13;98083.38;;;6.28;69.65
85511;BME280;75921;51.616;11.880;2024-02-23T11:24:43;98098.22;;;6.31;69.94
85511;BME280;75921;51.616;11.880;2024-02-23T11:27:13;98087.50;;;6.31;67.99
85511;BME280;75921;51.616;11.880;2024-02-23T11:29:39;98105.25;;;6.32;66.22
85511;BME280;75921;51.616;11.880;2024-02-23T11:32:15;98108.53;;;6.27;65.20
85511;BME280;75921;51.616;11.880;2024-02-23T11:34:41;98103.16;;;6.27;65.73
85511;BME280;75921;51.616;11.880;2024-02-23T11:37:10;98108.16;;;6.30;68.52
85511;BME280;75921;51.616;11.880;2024-02-23T11:39:37;98099.03;;;6.31;68.15
85511;BME280;75921;51.616;11.880;2024-02-23T11:42:04;98111.84;;;6.29;69.96
85511;BME280;75921;51.616;11.880;2024-02-23T11:44:29;98117.41;;;6.28;69.77
85511;BME280;75921;51.616;11.880;2024-02-23T11:46:55;98120.13;;;6.34;69.40
85511;BME280;75921;51.616;11.880;2024-02-23T11:49:20;98117.00;;;6.31;68.92
85511;BME280;75921;51.616;11.880;2024-02-23T11:51:45;98128.81;;;6.49;69.49
85511;BME280;75921;51.616;11.880;2024-02-23T11:54:11;98117.03;;;6.50;69.57
85511;BME280;75921;51.616;11.880;2024-02-23T11:56:36;98117.25;;;6.56;67.67
85511;BME280;75921;51.616;11.880;2024-02-23T11:59:02;98105.28;;;6.65;69.14
85511;BME280;75921;51.616;11.880;2024-02-23T12:01:30;98107.59;;;6.68;69.15
85511;BME280;75921;51.616;11.880;2024-02-23T12:03:56;98112.97;;;6.68;69.84
85511;BME280;75921;51.616;11.880;2024-02-23T12:06:22;98112.09;;;6.61;68.74
85511;BME280;75921;51.616;11.880;2024-02-23T12:08:47;98111.50;;;6.59;69.02
85511;BME280;75921;51.616;11.880;2024-02-23T12:11:13;98121.41;;;6.58;66.68
85511;BME280;75921;51.616;11.880;2024-02-23T12:13:39;98116.22;;;6.57;69.47
85511;BME280;75921;51.616;11.880;2024-02-23T12:16:07;98105.94;;;6.67;68.85
85511;BME280;75921;51.616;11.880;2024-02-23T12:18:33;98105.94;;;6.67;68.17
85511;BME280;75921;51.616;11.880;2024-02-23T12:21:04;98112.75;;;6.63;67.34
85511;BME280;75921;51.616;11.880;2024-02-23T12:23:44;98106.75;;;6.61;67.61
85511;BME280;75921;51.616;11.880;2024-02-23T12:26:14;98112.72;;;6.56;67.97
85511;BME280;75921;51.616;11.880;2024-02-23T12:28:40;98110.88;;;6.63;66.50
85511;BME280;75921;51.616;11.880;2024-02-23T12:31:06;98116.47;;;6.68;65.59
85511;BME280;75921;51.616;11.880;2024-02-23T12:33:33;98110.28;;;6.68;66.55
85511;BME280;75921;51.616;11.880;2024-02-23T12:36:03;98116.03;;;6.65;67.77
85511;BME280;75921;51.616;11.880;2024-02-23T12:38:29;98115.00;;;6.59;66.98
85511;BME280;75921;51.616;11.880;2024-02-23T12:40:55;98128.84;;;6.69;66.07
85511;BME280;75921;51.616;11.880;2024-02-23T12:43:20;98122.03;;;6.67;65.39
85511;BME280;75921;51.616;11.880;2024-02-23T12:45:47;98122.63;;;6.62;67.11
85511;BME280;75921;51.616;11.880;2024-02-23T12:48:15;98129.03;;;6.61;68.18
85511;BME280;75921;51.616;11.880;2024-02-23T12:50:40;98116.44;;;6.48;69.27
85511;BME280;75921;51.616;11.880;2024-02-23T12:53:06;98134.63;;;6.60;69.03